Time;durP1;ratioP1;P1;durP2;ratioP2;P2;SDS_P1;SDS_P2;PMS_P1;PMS_P2;Temp;Humidity;BMP_temperature;BMP_pressure;BME280_temperature;BME280_humidity;BME280_pressure;Samples;Min_cycle;Max_cycle;Signal;HPM_P1;HPM_P2
2021/05/06 00:05:12;;;;;;;3.95;3.08;;;15.10;50.60;;;;;;5034789;28;20029;-62
2021/05/06 00:34:24;;;;;;;2.58;2.00;;;15.00;50.10;;;;;;5014345;28;20041;-62
2021/05/06 00:36:49;;;;;;;2.42;1.90;;;15.00;50.10;;;;;;5013927;28;20030;-62
2021/05/06 00:39:18;;;;;;;2.70;2.30;;;15.00;50.20;;;;;;5014146;28;20034;-63
2021/05/06 01:03:58;;;;;;;4.07;2.35;;;14.80;50.70;;;;;;5029662;28;20101;-64
2021/05/06 01:06:25;;;;;;;4.50;2.35;;;14.80;50.80;;;;;;5032895;28;20116;-63
2021/05/06 01:08:55;;;;;;;4.40;2.65;;;14.80;50.90;;;;;;5033502;28;20024;-63
2021/05/06 01:13:50;;;;;;;7.20;3.17;;;14.80;50.90;;;;;;5033163;28;20104;-61
2021/05/06 01:16:16;;;;;;;6.57;3.75;;;14.80;51.10;;;;;;5026002;28;20601;-62
2021/05/06 01:18:41;;;;;;;6.85;3.38;;;14.70;51.20;;;;;;5024832;28;20022;-65
2021/05/06 01:21:07;;;;;;;6.63;3.17;;;14.70;51.50;;;;;;5032713;28;20473;-65
2021/05/06 01:23:34;;;;;;;6.10;3.58;;;14.70;51.70;;;;;;5032981;28;20013;-65
2021/05/06 01:26:12;;;;;;;6.93;3.08;;;14.70;51.90;;;;;;5033028;28;20048;-65
2021/05/06 01:28:41;;;;;;;4.38;2.75;;;14.70;52.10;;;;;;5028283;28;20476;-64
2021/05/06 01:31:17;;;;;;;4.68;3.03;;;14.60;52.10;;;;;;5028295;28;20022;-65
2021/05/06 01:33:49;;;;;;;3.42;2.75;;;14.60;52.20;;;;;;5013141;28;20053;-65
2021/05/06 01:36:28;;;;;;;5.38;3.38;;;14.60;52.30;;;;;;5012766;28;20034;-65
2021/05/06 01:41:45;;;;;;;3.00;2.60;;;14.60;52.60;;;;;;5012808;28;20136;-65
2021/05/06 01:47:09;;;;;;;5.55;2.65;;;14.60;52.90;;;;;;5032487;28;20116;-65
2021/05/06 01:57:42;;;;;;;9.68;4.68;;;14.50;54.30;;;;;;5032130;28;20055;-65
2021/05/06 02:00:17;;;;;;;6.68;3.88;;;14.50;54.70;;;;;;5012839;28;20037;-65
2021/05/06 02:02:44;;;;;;;9.23;4.63;;;14.40;54.70;;;;;;5013006;28;20454;-65
2021/05/06 02:05:10;;;;;;;9.13;4.40;;;14.40;55.10;;;;;;5016755;28;20027;-65
2021/05/06 02:07:39;;;;;;;7.35;3.63;;;14.40;55.20;;;;;;5031444;28;20380;-65
2021/05/06 02:10:07;;;;;;;7.72;3.28;;;14.40;55.30;;;;;;5012267;28;20385;-65
2021/05/06 02:12:33;;;;;;;4.28;2.88;;;14.40;55.60;;;;;;5012500;28;20033;-65
2021/05/06 02:15:05;;;;;;;4.07;2.70;;;14.40;55.40;;;;;;5015605;28;20076;-65
2021/05/06 02:17:32;;;;;;;5.05;3.10;;;14.40;55.50;;;;;;5030938;28;20029;-65
2021/05/06 02:19:58;;;;;;;3.33;2.78;;;14.40;55.90;;;;;;5032269;28;20515;-65
2021/05/06 02:22:24;;;;;;;4.43;2.80;;;14.40;55.90;;;;;;5032117;28;20018;-65
2021/05/06 02:24:49;;;;;;;3.63;2.72;;;14.40;56.00;;;;;;5014596;28;20454;-65
2021/05/06 02:27:15;;;;;;;3.25;2.53;;;14.40;56.00;;;;;;5012258;28;20022;-65
2021/05/06 02:29:41;;;;;;;3.83;2.83;;;14.30;56.20;;;;;;5012405;28;20026;-65
2021/05/06 02:32:07;;;;;;;5.20;2.50;;;14.30;56.20;;;;;;5012285;28;20165;-65
2021/05/06 02:34:33;;;;;;;5.05;2.67;;;14.30;56.30;;;;;;5012174;28;20034;-65
2021/05/06 02:37:00;;;;;;;5.18;3.20;;;14.40;56.60;;;;;;5012172;28;20037;-65
2021/05/06 02:39:25;;;;;;;6.80;3.40;;;14.30;56.70;;;;;;5012108;28;20386;-65
2021/05/06 02:41:51;;;;;;;5.53;3.22;;;14.30;56.70;;;;;;5012355;28;20030;-65
2021/05/06 02:44:17;;;;;;;7.18;3.53;;;14.30;56.70;;;;;;5028969;28;20017;-65
2021/05/06 02:46:42;;;;;;;9.50;4.90;;;14.40;56.70;;;;;;5031754;28;20021;-65
2021/05/06 02:49:08;;;;;;;6.32;4.13;;;14.40;56.60;;;;;;5031585;28;20029;-65
2021/05/06 02:52:18;;;;;;;11.02;5.15;;;14.40;56.50;;;;;;5031969;28;20355;-65
2021/05/06 02:54:23;;;;;;;15.18;6.55;;;14.40;56.50;;;;;;5023384;28;20402;-65
2021/05/06 03:02:40;;;;;;;28.42;10.23;;;14.40;56.50;;;;;;5012336;28;20034;-65
2021/05/06 03:04:50;;;;;;;36.42;11.40;;;14.50;56.60;;;;;;5021343;28;20500;-65
2021/05/06 03:07:21;;;;;;;26.63;9.88;;;14.50;56.20;;;;;;5031715;28;20021;-65
2021/05/06 03:21:03;;;;;;;24.67;8.02;;;14.60;55.80;;;;;;5024581;28;20029;-65
2021/05/06 03:23:01;;;;;;;21.20;8.82;;;14.70;55.60;;;;;;5031954;28;20133;-65
2021/05/06 03:25:29;;;;;;;25.90;9.63;;;14.70;55.60;;;;;;5032031;28;20108;-65
2021/05/06 03:28:09;;;;;;;27.35;10.00;;;14.70;55.70;;;;;;5032083;28;20430;-64
2021/05/06 03:43:50;;;;;;;31.08;10.52;;;14.80;55.50;;;;;;5035266;28;20106;-65
2021/05/06 04:27:18;;;;;;;7.28;3.60;;;22.20;45.80;;;;;;5034517;28;20382;-66
2021/05/06 04:30:02;;;;;;;5.55;3.28;;;22.40;45.00;;;;;;5034769;28;20372;-66
2021/05/06 04:37:52;;;;;;;4.93;2.40;;;23.90;43.60;;;;;;5034595;28;20026;-66
2021/05/06 04:40:40;;;;;;;6.13;2.28;;;24.40;42.70;;;;;;5033998;28;20389;-66
2021/05/06 05:04:54;;;;;;;4.05;2.33;;;27.10;37.60;;;;;;5019964;28;20057;-66
2021/05/06 05:07:22;;;;;;;1.98;1.83;;;27.20;37.30;;;;;;5033689;28;20057;-66
2021/05/06 05:21:02;;;;;;;3.15;2.47;;;26.00;36.80;;;;;;5033639;28;20068;-66
2021/05/06 05:23:40;;;;;;;4.78;2.97;;;25.90;36.60;;;;;;5033595;28;20030;-66
2021/05/06 05:26:09;;;;;;;3.20;2.30;;;25.80;36.50;;;;;;5033562;28;20018;-66
2021/05/06 05:28:36;;;;;;;5.53;2.78;;;25.60;36.50;;;;;;5033358;28;20032;-66
2021/05/06 05:31:02;;;;;;;7.90;2.75;;;25.30;36.40;;;;;;5033169;28;20493;-66
2021/05/06 05:33:30;;;;;;;3.30;2.15;;;24.70;36.50;;;;;;5033203;28;20068;-66
2021/05/06 05:36:18;;;;;;;3.30;2.38;;;23.90;37.30;;;;;;5033096;28;20037;-65
2021/05/06 05:44:09;;;;;;;4.47;2.00;;;22.30;39.20;;;;;;5033475;28;20017;-64
2021/05/06 05:54:46;;;;;;;5.07;2.35;;;21.20;41.40;;;;;;5030523;28;20052;-64
2021/05/06 05:57:12;;;;;;;3.00;2.28;;;21.00;41.50;;;;;;5031015;28;20040;-64
2021/05/06 05:59:38;;;;;;;8.60;2.85;;;20.70;41.70;;;;;;5020514;28;20022;-65
2021/05/06 06:02:04;;;;;;;5.32;2.70;;;20.50;41.90;;;;;;5018171;28;20034;-65
2021/05/06 06:04:30;;;;;;;4.00;2.80;;;20.30;42.10;;;;;;5016420;28;20370;-65
2021/05/06 06:06:56;;;;;;;6.47;2.50;;;20.10;42.50;;;;;;5021533;28;20036;-65
2021/05/06 06:09:22;;;;;;;5.22;2.50;;;19.90;42.80;;;;;;5018339;28;20045;-64
2021/05/06 06:11:48;;;;;;;4.40;2.33;;;19.70;43.20;;;;;;5017811;28;20351;-64
2021/05/06 06:14:18;;;;;;;3.53;2.50;;;19.60;43.70;;;;;;5030712;28;20104;-65
2021/05/06 06:16:44;;;;;;;5.30;2.47;;;19.70;44.10;;;;;;5022597;28;20385;-65
2021/05/06 06:19:09;;;;;;;2.95;2.22;;;19.70;44.10;;;;;;5018524;28;20043;-65
2021/05/06 06:24:05;;;;;;;4.93;2.47;;;19.60;43.90;;;;;;5018957;28;20017;-64
2021/05/06 06:26:30;;;;;;;3.38;2.38;;;19.50;43.80;;;;;;5022998;28;20040;-64
2021/05/06 06:29:02;;;;;;;7.53;3.15;;;19.40;44.20;;;;;;5004876;28;20026;-65
2021/05/06 06:31:32;;;;;;;3.10;2.30;;;19.20;44.30;;;;;;5019808;28;20736;-65
2021/05/06 06:33:58;;;;;;;6.28;2.20;;;19.10;44.30;;;;;;5014736;28;20484;-64
2021/05/06 06:36:24;;;;;;;2.60;2.40;;;19.00;44.70;;;;;;5014753;28;20041;-64
2021/05/06 06:38:50;;;;;;;3.88;2.70;;;18.90;45.00;;;;;;5021753;28;20037;-64
2021/05/06 06:41:17;;;;;;;2.60;2.17;;;18.80;45.10;;;;;;5020337;28;20034;-63
2021/05/06 06:43:46;;;;;;;4.78;2.10;;;18.70;45.30;;;;;;5023035;28;20065;-63
2021/05/06 06:46:12;;;;;;;5.38;2.42;;;18.70;45.20;;;;;;5017096;28;20115;-63
2021/05/06 06:48:38;;;;;;;3.85;2.30;;;18.60;45.10;;;;;;5013059;28;20430;-64
2021/05/06 06:51:05;;;;;;;3.80;2.40;;;18.50;45.20;;;;;;5017679;28;20116;-64
2021/05/06 06:53:30;;;;;;;2.90;2.42;;;18.40;45.10;;;;;;5014561;28;20104;-64
2021/05/06 06:55:57;;;;;;;2.38;2.08;;;18.30;45.30;;;;;;5020336;28;20033;-64
2021/05/06 06:58:23;;;;;;;4.57;2.22;;;18.20;45.70;;;;;;5021926;28;20029;-64
2021/05/06 07:00:49;;;;;;;3.03;2.22;;;18.20;45.80;;;;;;5018242;28;20037;-63
2021/05/06 07:03:15;;;;;;;6.45;2.60;;;18.20;46.00;;;;;;5020659;28;20419;-64
2021/05/06 07:05:41;;;;;;;4.20;2.50;;;18.20;46.00;;;;;;5024692;28;20667;-64
2021/05/06 07:08:36;;;;;;;4.63;2.80;;;18.10;46.30;;;;;;5026295;28;20028;-64
2021/05/06 07:11:04;;;;;;;5.10;2.50;;;18.10;46.30;;;;;;5010419;28;20056;-64
2021/05/06 07:13:30;;;;;;;6.18;2.83;;;18.10;46.60;;;;;;5019864;28;20034;-64
2021/05/06 07:16:07;;;;;;;2.75;2.47;;;18.10;46.70;;;;;;5020324;28;20025;-64
2021/05/06 07:18:33;;;;;;;5.90;2.65;;;18.00;46.70;;;;;;5024678;28;20035;-64
2021/05/06 07:21:01;;;;;;;5.60;2.83;;;18.00;47.10;;;;;;5019275;28;20374;-64
2021/05/06 07:23:28;;;;;;;2.80;2.13;;;18.00;47.20;;;;;;5024984;28;20032;-64
2021/05/06 07:25:56;;;;;;;3.05;2.22;;;17.90;47.20;;;;;;5021653;28;20034;-64
2021/05/06 07:28:29;;;;;;;3.55;2.38;;;17.90;47.40;;;;;;5014582;28;20064;-64
2021/05/06 07:30:54;;;;;;;4.53;2.47;;;17.80;47.80;;;;;;5024774;28;20477;-64
2021/05/06 07:33:20;;;;;;;8.27;2.20;;;17.80;48.30;;;;;;5023107;28;20080;-63
2021/05/06 07:35:46;;;;;;;2.25;2.05;;;17.80;48.60;;;;;;5015465;28;20160;-64
2021/05/06 07:38:12;;;;;;;2.30;2.10;;;17.70;49.20;;;;;;5018022;28;20037;-63
2021/05/06 07:40:39;;;;;;;5.82;2.47;;;17.80;49.70;;;;;;5023515;28;20555;-64
2021/05/06 07:43:07;;;;;;;3.22;2.30;;;17.80;50.20;;;;;;5020015;28;20033;-63
2021/05/06 07:45:33;;;;;;;5.85;2.50;;;18.00;50.70;;;;;;5015546;28;20029;-64
2021/05/06 07:48:00;;;;;;;4.85;2.25;;;18.10;51.10;;;;;;5025888;28;20040;-64
2021/05/06 07:50:27;;;;;;;3.35;2.47;;;18.20;51.00;;;;;;5022321;28;20708;-64
2021/05/06 07:53:02;;;;;;;6.38;2.60;;;18.40;50.90;;;;;;5021821;28;20056;-64
2021/05/06 07:55:27;;;;;;;4.22;2.50;;;18.50;50.60;;;;;;5019847;28;20137;-65
2021/05/06 07:57:53;;;;;;;4.63;2.40;;;18.50;50.60;;;;;;5024550;28;20112;-64
2021/05/06 08:00:21;;;;;;;4.10;2.80;;;18.50;50.60;;;;;;5023653;28;20033;-64
2021/05/06 08:02:48;;;;;;;7.53;2.80;;;18.50;50.90;;;;;;5019565;28;20476;-64
2021/05/06 08:05:14;;;;;;;3.25;2.67;;;18.40;51.30;;;;;;5019396;28;20033;-65
2021/05/06 08:07:41;;;;;;;5.28;3.00;;;18.50;51.50;;;;;;5027184;28;20076;-65
2021/05/06 08:10:08;;;;;;;7.07;3.30;;;18.60;51.60;;;;;;5022893;28;20067;-65
2021/05/06 08:12:33;;;;;;;4.47;2.92;;;18.60;51.80;;;;;;5022674;28;20156;-65
2021/05/06 08:15:02;;;;;;;3.85;2.63;;;18.70;51.90;;;;;;5020471;28;20888;-65
2021/05/06 08:17:27;;;;;;;3.33;2.50;;;18.80;51.80;;;;;;5010246;28;20042;-65
2021/05/06 08:19:53;;;;;;;5.05;2.97;;;18.90;51.50;;;;;;5014435;28;20163;-65
2021/05/06 08:22:19;;;;;;;6.68;2.75;;;18.90;51.60;;;;;;5009973;28;20041;-65
2021/05/06 08:24:45;;;;;;;4.65;2.45;;;18.90;51.60;;;;;;5019828;28;20405;-65
2021/05/06 08:27:10;;;;;;;7.70;2.95;;;18.90;51.50;;;;;;5018026;28;20359;-65
2021/05/06 08:29:36;;;;;;;6.28;2.80;;;18.90;51.40;;;;;;5015542;28;20030;-64
2021/05/06 08:32:02;;;;;;;4.80;2.58;;;18.90;51.80;;;;;;5014187;28;20038;-65
2021/05/06 08:34:28;;;;;;;5.05;2.83;;;19.00;52.00;;;;;;5016890;28;20037;-65
2021/05/06 08:36:53;;;;;;;3.42;3.13;;;19.10;52.10;;;;;;5020176;28;20033;-65
2021/05/06 08:39:19;;;;;;;5.07;2.80;;;19.20;52.10;;;;;;5016955;28;20029;-65
2021/05/06 08:41:45;;;;;;;5.80;2.63;;;19.20;51.70;;;;;;5019709;28;20474;-65
2021/05/06 08:44:14;;;;;;;4.28;2.78;;;19.20;52.00;;;;;;5021833;28;20044;-65
2021/05/06 08:47:42;;;;;;;5.10;2.53;;;19.30;52.10;;;;;;5022842;28;20029;-65
2021/05/06 08:49:37;;;;;;;5.38;2.85;;;19.30;52.00;;;;;;5002987;28;20033;-66
2021/05/06 08:52:05;;;;;;;3.85;2.60;;;19.30;52.00;;;;;;5015478;28;20029;-65
2021/05/06 08:54:31;;;;;;;5.88;2.70;;;19.40;51.90;;;;;;5020540;28;20054;-65
2021/05/06 08:56:58;;;;;;;7.00;2.85;;;19.30;51.70;;;;;;5018569;28;20490;-65
2021/05/06 08:59:27;;;;;;;4.28;2.88;;;19.20;52.10;;;;;;5019030;28;20063;-65
2021/05/06 09:01:55;;;;;;;4.50;2.92;;;19.20;52.40;;;;;;5008122;28;20474;-65
2021/05/06 09:04:21;;;;;;;4.63;2.75;;;19.10;52.40;;;;;;5019928;28;20068;-65
2021/05/06 09:06:59;;;;;;;5.28;2.75;;;19.00;52.60;;;;;;5020029;28;22037;-65
2021/05/06 09:09:30;;;;;;;4.18;2.80;;;18.90;53.00;;;;;;5017035;28;20045;-65
2021/05/06 09:12:06;;;;;;;4.40;2.92;;;18.80;53.30;;;;;;5013751;28;20069;-65
2021/05/06 09:14:48;;;;;;;3.78;2.53;;;18.80;53.90;;;;;;5021547;28;20190;-65
2021/05/06 09:17:25;;;;;;;2.80;2.55;;;18.90;54.30;;;;;;5020620;28;20481;-64
2021/05/06 09:19:56;;;;;;;4.00;2.85;;;19.00;54.50;;;;;;5022887;28;20132;-64
2021/05/06 09:22:42;;;;;;;5.25;3.25;;;19.10;54.30;;;;;;5020027;28;20029;-65
2021/05/06 09:25:35;;;;;;;5.80;3.08;;;19.20;54.50;;;;;;5014567;28;20121;-65
2021/05/06 09:28:04;;;;;;;3.22;2.70;;;19.40;54.20;;;;;;5017962;28;20044;-65
2021/05/06 09:30:30;;;;;;;4.47;2.90;;;19.50;54.20;;;;;;5019350;28;20032;-65
2021/05/06 09:33:04;;;;;;;4.00;3.15;;;19.60;54.40;;;;;;5021430;28;20041;-65
2021/05/06 09:35:39;;;;;;;5.97;3.10;;;19.70;54.20;;;;;;5023577;28;20087;-65
2021/05/06 09:38:05;;;;;;;6.53;3.17;;;19.70;54.40;;;;;;5013918;28;20030;-65
2021/05/06 09:40:46;;;;;;;4.63;2.65;;;19.70;53.90;;;;;;5015292;28;20041;-65
2021/05/06 09:43:22;;;;;;;7.22;3.03;;;19.60;53.90;;;;;;5017674;28;20068;-64
2021/05/06 09:45:48;;;;;;;4.63;2.90;;;19.50;54.20;;;;;;5018643;28;20442;-65
2021/05/06 09:48:20;;;;;;;6.57;3.30;;;19.40;54.30;;;;;;5016038;28;20036;-65
2021/05/06 09:50:48;;;;;;;6.45;3.05;;;19.30;54.60;;;;;;5019436;28;20052;-64
2021/05/06 09:53:18;;;;;;;7.53;3.03;;;19.20;55.00;;;;;;5017567;28;20796;-64
2021/05/06 09:55:46;;;;;;;6.22;3.58;;;19.10;55.40;;;;;;5011327;28;20068;-65
2021/05/06 09:58:18;;;;;;;4.15;3.15;;;19.10;56.00;;;;;;5014683;28;20124;-64
2021/05/06 10:00:45;;;;;;;7.30;3.72;;;19.00;56.70;;;;;;5012468;28;20041;-64
2021/05/06 10:03:16;;;;;;;5.95;3.60;;;18.90;57.00;;;;;;5015838;28;20026;-64
2021/05/06 10:05:43;;;;;;;5.82;4.05;;;18.80;57.40;;;;;;5017428;28;20454;-64
2021/05/06 10:08:09;;;;;;;7.00;3.40;;;18.70;57.90;;;;;;5014944;28;20036;-63
2021/05/06 10:10:36;;;;;;;5.18;3.30;;;18.60;58.10;;;;;;5013680;28;20037;-63
2021/05/06 10:13:04;;;;;;;3.53;3.22;;;18.50;58.20;;;;;;5015769;28;20129;-63
2021/05/06 10:15:30;;;;;;;5.95;3.53;;;18.30;58.30;;;;;;5012876;28;20057;-66
2021/05/06 10:17:56;;;;;;;5.25;3.63;;;18.10;59.00;;;;;;5018251;28;20065;-63
2021/05/06 10:20:25;;;;;;;5.95;4.03;;;18.00;59.90;;;;;;5020708;28;20040;-63
2021/05/06 10:22:52;;;;;;;6.03;3.95;;;17.90;60.50;;;;;;5012332;28;20104;-63
2021/05/06 10:25:23;;;;;;;10.13;4.10;;;17.80;60.90;;;;;;5014023;28;20120;-63
2021/05/06 10:27:50;;;;;;;4.90;4.10;;;17.80;61.40;;;;;;5011022;28;20076;-63
2021/05/06 10:30:17;;;;;;;5.70;4.38;;;17.70;61.40;;;;;;5019891;28;20033;-63
2021/05/06 10:32:44;;;;;;;8.35;4.45;;;17.70;61.70;;;;;;5020990;28;20026;-63
2021/05/06 10:35:18;;;;;;;5.47;4.03;;;17.70;62.10;;;;;;5019619;28;20176;-64
2021/05/06 10:37:50;;;;;;;6.32;4.10;;;17.80;62.10;;;;;;5022692;28;20021;-64
2021/05/06 10:40:27;;;;;;;6.85;4.25;;;17.80;62.20;;;;;;5020743;28;20029;-64
2021/05/06 10:42:55;;;;;;;6.95;4.35;;;17.80;62.70;;;;;;5021130;28;20517;-64
2021/05/06 10:45:25;;;;;;;5.60;3.70;;;17.80;61.90;;;;;;5015932;28;20030;-64
2021/05/06 10:47:57;;;;;;;4.00;3.53;;;17.90;61.70;;;;;;5014514;28;20638;-64
2021/05/06 10:50:33;;;;;;;6.43;3.67;;;17.80;61.50;;;;;;5022910;28;20421;-64
2021/05/06 10:53:00;;;;;;;5.07;3.40;;;17.80;61.40;;;;;;5021992;28;20041;-64
2021/05/06 10:55:53;;;;;;;6.43;3.70;;;17.80;61.70;;;;;;5022794;28;20026;-64
2021/05/06 10:58:29;;;;;;;6.65;3.70;;;17.80;61.70;;;;;;5024010;28;20076;-64
2021/05/06 11:01:05;;;;;;;4.57;3.58;;;17.80;62.60;;;;;;5028107;28;20029;-64
2021/05/06 11:03:32;;;;;;;5.20;3.80;;;17.70;62.50;;;;;;5020033;28;20088;-64
2021/05/06 11:05:59;;;;;;;6.03;3.90;;;17.70;62.40;;;;;;5021383;28;20087;-64
2021/05/06 11:08:35;;;;;;;5.35;3.72;;;17.70;62.80;;;;;;5021977;28;20132;-64
2021/05/06 11:11:01;;;;;;;5.82;3.92;;;17.60;63.20;;;;;;5023457;28;20061;-64
2021/05/06 11:13:48;;;;;;;5.50;3.35;;;17.60;63.90;;;;;;5020042;28;20034;-64
2021/05/06 11:16:18;;;;;;;5.32;4.13;;;17.60;64.50;;;;;;5023261;28;20044;-65
2021/05/06 11:18:47;;;;;;;6.22;4.43;;;17.60;64.70;;;;;;5015251;28;20388;-64
2021/05/06 11:21:37;;;;;;;7.10;4.45;;;17.60;65.30;;;;;;5014212;28;20080;-64
2021/05/06 11:24:17;;;;;;;6.43;3.95;;;17.70;65.70;;;;;;5009468;28;20041;-64
2021/05/06 11:27:20;;;;;;;4.82;3.78;;;17.70;66.30;;;;;;5017885;28;20030;-65
2021/05/06 11:29:46;;;;;;;6.55;4.22;;;17.70;65.90;;;;;;5009502;28;20033;-64
2021/05/06 11:32:33;;;;;;;7.32;4.72;;;17.70;66.70;;;;;;5020871;28;20033;-64
2021/05/06 11:34:59;;;;;;;6.60;4.45;;;17.80;66.60;;;;;;5020253;28;20021;-65
2021/05/06 11:37:29;;;;;;;5.00;4.30;;;17.80;66.80;;;;;;5019283;28;20402;-65
2021/05/06 11:40:01;;;;;;;7.35;5.30;;;17.90;67.20;;;;;;5020010;28;20025;-65
2021/05/06 11:42:29;;;;;;;6.47;4.97;;;17.90;66.90;;;;;;5017264;28;20037;-65
2021/05/06 11:45:09;;;;;;;5.30;4.72;;;17.90;67.40;;;;;;5018076;28;20140;-65
2021/05/06 11:47:35;;;;;;;7.85;5.30;;;18.00;67.10;;;;;;5019037;28;20059;-65
2021/05/06 11:50:18;;;;;;;8.73;5.43;;;18.00;67.30;;;;;;5023358;28;20440;-65
2021/05/06 11:52:44;;;;;;;8.25;5.03;;;18.00;67.30;;;;;;5022708;28;20378;-65
2021/05/06 11:55:32;;;;;;;8.57;4.93;;;18.00;67.40;;;;;;5019813;28;20480;-65
2021/05/06 11:57:58;;;;;;;10.93;5.05;;;18.10;67.40;;;;;;5022552;28;20112;-64
2021/05/06 12:00:26;;;;;;;7.32;5.05;;;18.10;68.00;;;;;;5018359;28;20099;-65
2021/05/06 12:02:59;;;;;;;12.43;4.75;;;18.10;67.40;;;;;;5016710;28;20042;-65
2021/05/06 12:05:48;;;;;;;6.32;4.20;;;18.20;66.60;;;;;;5016401;28;20098;-64
2021/05/06 12:08:13;;;;;;;6.95;4.32;;;18.10;65.80;;;;;;5023130;28;20124;-65
2021/05/06 12:10:40;;;;;;;5.60;3.92;;;18.00;65.50;;;;;;5024349;28;20144;-65
2021/05/06 12:13:06;;;;;;;6.93;5.32;;;18.00;65.30;;;;;;5016612;28;20041;-65
2021/05/06 12:15:32;;;;;;;6.20;4.55;;;17.90;65.50;;;;;;5024664;28;20072;-64
2021/05/06 12:18:19;;;;;;;8.07;4.85;;;17.80;64.80;;;;;;5017169;28;20037;-65
2021/05/06 12:20:57;;;;;;;5.32;4.82;;;17.70;64.90;;;;;;5003827;28;20044;-64
2021/05/06 12:23:24;;;;;;;6.80;4.30;;;17.60;64.60;;;;;;5019718;28;20033;-65
2021/05/06 12:25:51;;;;;;;7.07;4.72;;;17.60;64.50;;;;;;5017596;28;20037;-64
2021/05/06 12:28:17;;;;;;;6.55;5.10;;;17.50;64.50;;;;;;5016172;28;20026;-64
2021/05/06 12:30:43;;;;;;;7.35;4.90;;;17.50;64.30;;;;;;5015266;28;20030;-65
2021/05/06 12:33:09;;;;;;;6.28;4.43;;;17.50;63.90;;;;;;5016111;28;20038;-65
2021/05/06 12:35:53;;;;;;;6.30;4.82;;;17.60;64.20;;;;;;5011989;28;20034;-64
2021/05/06 12:38:19;;;;;;;5.55;4.20;;;17.50;64.20;;;;;;5017738;28;20060;-65
2021/05/06 12:40:45;;;;;;;5.53;4.35;;;17.50;64.70;;;;;;5023207;28;20440;-65
2021/05/06 12:43:47;;;;;;;5.72;4.68;;;17.60;65.50;;;;;;5019057;28;20107;-65
2021/05/06 12:46:13;;;;;;;8.18;4.70;;;17.60;65.20;;;;;;5019644;28;20022;-65
2021/05/06 12:48:54;;;;;;;6.60;4.82;;;17.60;65.20;;;;;;5017205;28;20049;-65
2021/05/06 12:51:25;;;;;;;8.55;4.93;;;17.60;64.90;;;;;;5018629;28;20037;-65
2021/05/06 12:54:11;;;;;;;5.25;4.50;;;17.50;65.20;;;;;;5018418;28;20053;-65
2021/05/06 12:56:43;;;;;;;7.00;4.82;;;17.50;65.50;;;;;;5017216;28;20029;-65
2021/05/06 12:59:37;;;;;;;5.47;4.75;;;17.50;65.70;;;;;;5017607;28;20029;-65
2021/05/06 13:02:09;;;;;;;7.03;5.07;;;17.50;65.70;;;;;;4988141;28;20038;-65
2021/05/06 13:04:43;;;;;;;;;;;17.40;65.80;;;;;;5020882;28;20042;-65
2021/05/06 13:07:09;;;;;;;4.95;4.45;;;17.40;65.30;;;;;;5016451;28;19913;-65
2021/05/06 13:09:46;;;;;;;6.22;4.93;;;17.30;65.10;;;;;;5015136;28;20060;-64
2021/05/06 13:12:16;;;;;;;6.85;5.00;;;17.30;65.20;;;;;;5014537;28;20029;-64
2021/05/06 13:14:48;;;;;;;6.50;4.75;;;17.30;65.10;;;;;;5015835;28;20022;-65
2021/05/06 13:17:32;;;;;;;5.63;5.10;;;17.30;65.20;;;;;;5012398;28;20453;-64
2021/05/06 13:20:13;;;;;;;7.28;4.90;;;17.30;65.70;;;;;;5016308;28;20761;-65
2021/05/06 13:22:38;;;;;;;5.82;5.22;;;17.20;66.10;;;;;;5012688;28;20030;-65
2021/05/06 13:25:05;;;;;;;7.20;5.13;;;17.20;65.90;;;;;;5015909;28;20026;-64
2021/05/06 13:27:31;;;;;;;7.05;5.50;;;17.20;66.60;;;;;;5010312;28;20112;-65
2021/05/06 13:30:05;;;;;;;5.90;5.00;;;17.20;66.60;;;;;;5012056;28;20136;-65
2021/05/06 13:32:36;;;;;;;6.00;4.78;;;17.20;66.70;;;;;;5011035;28;20372;-65
2021/05/06 13:35:14;;;;;;;6.75;4.95;;;17.10;66.80;;;;;;5013267;28;20025;-65
2021/05/06 13:37:43;;;;;;;6.45;4.70;;;17.10;66.30;;;;;;5012194;28;20700;-65
2021/05/06 13:40:09;;;;;;;4.70;4.20;;;17.10;65.40;;;;;;5012645;28;20037;-64
2021/05/06 13:42:36;;;;;;;6.65;4.80;;;17.10;65.50;;;;;;5012498;28;20121;-65
2021/05/06 13:45:02;;;;;;;5.55;4.55;;;17.10;65.40;;;;;;5017462;28;20026;-65
2021/05/06 13:47:28;;;;;;;6.55;4.97;;;17.00;65.50;;;;;;5001814;28;20060;-64
2021/05/06 13:49:54;;;;;;;5.30;4.55;;;17.00;65.70;;;;;;5011954;28;20038;-64
2021/05/06 13:52:23;;;;;;;7.30;5.75;;;17.00;65.60;;;;;;5017550;28;20033;-65
2021/05/06 13:54:50;;;;;;;9.23;5.82;;;17.00;65.90;;;;;;5020900;28;21072;-65
2021/05/06 13:57:16;;;;;;;6.28;5.50;;;17.00;65.80;;;;;;5018334;28;20698;-64
2021/05/06 13:59:42;;;;;;;7.28;5.28;;;17.00;66.20;;;;;;5018575;28;20148;-65
2021/05/06 14:02:08;;;;;;;7.65;5.40;;;17.00;66.60;;;;;;5013801;28;20377;-65
2021/05/06 14:04:33;;;;;;;6.88;5.07;;;17.10;66.40;;;;;;5015918;28;20075;-65
2021/05/06 14:06:59;;;;;;;6.00;4.80;;;17.10;66.10;;;;;;5014641;28;20077;-64
2021/05/06 14:09:25;;;;;;;6.95;5.22;;;17.10;65.50;;;;;;5015750;28;20731;-64
2021/05/06 14:11:51;;;;;;;5.75;4.55;;;17.00;65.70;;;;;;5016706;28;20044;-65
2021/05/06 14:14:17;;;;;;;6.40;4.60;;;17.00;65.20;;;;;;5009613;28;20112;-64
2021/05/06 14:16:43;;;;;;;6.80;5.28;;;17.00;65.00;;;;;;5014164;28;20036;-64
2021/05/06 14:19:11;;;;;;;7.15;4.40;;;17.00;65.20;;;;;;5013037;28;20033;-65
2021/05/06 14:21:39;;;;;;;4.55;4.13;;;17.00;65.00;;;;;;5013864;28;20512;-64
2021/05/06 14:24:06;;;;;;;5.15;3.88;;;16.90;64.80;;;;;;5013541;28;20033;-64
2021/05/06 14:26:32;;;;;;;4.65;3.58;;;16.90;64.80;;;;;;5015895;28;20054;-65
2021/05/06 14:28:58;;;;;;;6.22;4.10;;;16.90;64.70;;;;;;5016088;28;20064;-65
2021/05/06 14:31:24;;;;;;;3.85;3.45;;;17.00;64.50;;;;;;5015074;28;20116;-64
2021/05/06 14:33:50;;;;;;;5.30;4.15;;;17.00;64.70;;;;;;5001569;28;20302;-65
2021/05/06 14:36:16;;;;;;;5.18;3.95;;;17.00;64.90;;;;;;5016884;28;20026;-64
2021/05/06 14:38:42;;;;;;;4.90;3.63;;;17.10;64.70;;;;;;5016720;28;20025;-65
2021/05/06 14:41:09;;;;;;;3.78;3.22;;;17.20;64.60;;;;;;5017033;28;20040;-65
2021/05/06 14:43:36;;;;;;;3.97;3.40;;;17.30;64.10;;;;;;5014917;28;20043;-64
2021/05/06 14:46:02;;;;;;;5.20;3.00;;;17.30;63.90;;;;;;5016277;28;20120;-64
2021/05/06 14:48:28;;;;;;;3.30;2.92;;;17.40;63.80;;;;;;5016368;28;20028;-65
2021/05/06 14:50:55;;;;;;;2.90;2.65;;;17.40;63.60;;;;;;5015676;28;20142;-65
2021/05/06 14:53:20;;;;;;;3.58;2.47;;;17.40;63.50;;;;;;5015017;28;20058;-65
2021/05/06 14:55:47;;;;;;;2.45;2.08;;;17.40;63.40;;;;;;5020745;28;20527;-64
2021/05/06 14:58:12;;;;;;;2.20;2.00;;;17.40;63.00;;;;;;5012616;28;20037;-64
2021/05/06 15:00:38;;;;;;;3.15;1.98;;;17.50;62.80;;;;;;5020083;28;20397;-64
2021/05/06 15:03:04;;;;;;;2.17;1.98;;;17.40;62.90;;;;;;5002089;28;20031;-65
2021/05/06 15:05:31;;;;;;;1.83;1.73;;;17.50;62.20;;;;;;5017476;28;20172;-64
2021/05/06 15:08:00;;;;;;;2.85;2.00;;;17.40;61.80;;;;;;5013756;28;20196;-64
2021/05/06 15:10:26;;;;;;;2.67;1.98;;;17.30;61.90;;;;;;5016069;28;20033;-65
2021/05/06 15:12:52;;;;;;;3.63;2.80;;;17.30;61.90;;;;;;5011850;28;20037;-65
2021/05/06 15:15:17;;;;;;;2.92;2.40;;;17.20;62.00;;;;;;5019972;28;20025;-65
2021/05/06 15:17:44;;;;;;;2.50;2.30;;;17.10;61.90;;;;;;5016159;28;20461;-65
2021/05/06 15:20:10;;;;;;;2.10;1.90;;;17.00;61.80;;;;;;5017773;28;20033;-65
2021/05/06 15:22:36;;;;;;;2.22;2.03;;;17.00;61.70;;;;;;5022800;28;20022;-65
2021/05/06 15:25:03;;;;;;;2.42;1.90;;;16.90;61.90;;;;;;5018013;28;20049;-65
2021/05/06 15:27:29;;;;;;;2.20;2.00;;;16.80;61.90;;;;;;5020115;28;20022;-65
2021/05/06 15:29:54;;;;;;;1.83;1.73;;;16.80;62.00;;;;;;5022494;28;20030;-65
2021/05/06 15:32:20;;;;;;;2.30;2.10;;;16.80;62.10;;;;;;5023421;28;20075;-65
2021/05/06 15:34:47;;;;;;;2.30;2.10;;;16.70;62.40;;;;;;5026631;28;20528;-65
2021/05/06 15:37:13;;;;;;;3.45;2.20;;;16.70;63.00;;;;;;5022183;28;20044;-65
2021/05/06 15:39:39;;;;;;;2.83;2.13;;;16.60;63.50;;;;;;5019914;28;20037;-65
2021/05/06 15:42:05;;;;;;;2.40;2.20;;;16.60;64.00;;;;;;5020075;28;20079;-65
2021/05/06 15:44:32;;;;;;;4.60;2.30;;;16.60;64.30;;;;;;5010967;28;20022;-65
2021/05/06 15:47:04;;;;;;;2.15;2.00;;;16.50;64.10;;;;;;5021296;28;20148;-65
2021/05/06 15:49:34;;;;;;;2.35;2.15;;;16.50;64.00;;;;;;5022458;28;20033;-65
2021/05/06 15:52:01;;;;;;;2.00;1.80;;;16.50;63.90;;;;;;5019598;28;20095;-65
2021/05/06 15:54:28;;;;;;;1.90;1.80;;;16.40;63.80;;;;;;5021536;28;20126;-65
2021/05/06 15:56:54;;;;;;;2.20;2.00;;;16.40;63.70;;;;;;5018231;28;20022;-65
2021/05/06 15:59:20;;;;;;;1.95;1.80;;;16.40;63.40;;;;;;5020696;28;20048;-65
2021/05/06 16:01:46;;;;;;;1.90;1.80;;;16.40;63.20;;;;;;5019783;28;20078;-64
2021/05/06 16:04:15;;;;;;;2.22;2.00;;;16.40;63.40;;;;;;5023595;28;20108;-64
2021/05/06 16:06:41;;;;;;;2.53;2.10;;;16.30;63.50;;;;;;5020986;28;20478;-65
2021/05/06 16:09:06;;;;;;;2.30;2.08;;;16.30;63.20;;;;;;5016086;28;20037;-64
2021/05/06 16:11:32;;;;;;;2.47;2.03;;;16.30;62.80;;;;;;5018589;28;20021;-65